EDV4918 KLGA-KLEX
Flight info
| Callsign | EDV4918 |
|---|---|
| Flight time | N/A |
| Altitude | 34000 |
| Route | KLGA PARKE J6 HVQ J78 DACOS KLEX |
| Aircraft | CRJ9/M-SDE2E3FGIRW/LB1 |
Departure
| Time | 2026-05-04 15:10 |
|---|---|
| Airport | LaGuardia Airport (KLGA) |
Arrival
| Time | N/A |
|---|---|
| Airport | Blue Grass Airport (KLEX) |
| Time | Latitude | Longitude | Altitude | Speed | Heading |
|---|---|---|---|---|---|
| 2026-05-04 15:00 | 40.76920 | -73.86054 | 13 ft | 0 kts | 314° |
| 2026-05-04 15:05 | 40.76923 | -73.86056 | 13 ft | 0 kts | 353° |
| 2026-05-04 15:05 | 40.76926 | -73.86055 | 13 ft | 2 kts | 13° |
| 2026-05-04 15:05 | 40.76932 | -73.86050 | 13 ft | 1 kts | 61° |
| 2026-05-04 15:05 | 40.76923 | -73.86015 | 13 ft | 11 kts | 117° |
| 2026-05-04 15:06 | 40.76923 | -73.85964 | 12 ft | 0 kts | 39° |
| 2026-05-04 15:06 | 40.76926 | -73.85962 | 12 ft | 5 kts | 38° |
| 2026-05-04 15:06 | 40.77037 | -73.85903 | 9 ft | 18 kts | 11° |
| 2026-05-04 15:07 | 40.77161 | -73.85780 | 10 ft | 17 kts | 44° |
| 2026-05-04 15:07 | 40.77215 | -73.85731 | 12 ft | 3 kts | 353° |
| 2026-05-04 15:07 | 40.77218 | -73.85734 | 12 ft | 0 kts | 302° |
| 2026-05-04 15:10 | 40.77474 | -73.86273 | 11 ft | 107 kts | 302° |
| 2026-05-04 15:10 | 40.77993 | -73.87368 | 73 ft | 166 kts | 298° |
| 2026-05-04 15:10 | 40.79205 | -73.90210 | 1647 ft | 193 kts | 276° |
| 2026-05-04 15:11 | 40.79142 | -73.92019 | 2546 ft | 203 kts | 253° |
| 2026-05-04 15:11 | 40.78759 | -73.93860 | 3621 ft | 214 kts | 252° |
| 2026-05-04 15:11 | 40.78289 | -73.95763 | 4735 ft | 220 kts | 250° |
| 2026-05-04 15:11 | 40.77762 | -73.97684 | 5782 ft | 228 kts | 249° |
| 2026-05-04 15:12 | 40.76985 | -73.99489 | 6933 ft | 230 kts | 227° |
| 2026-05-04 15:12 | 40.75868 | -74.00943 | 8039 ft | 227 kts | 234° |
| 2026-05-04 15:12 | 40.74995 | -74.02667 | 9109 ft | 225 kts | 245° |
| 2026-05-04 15:12 | 40.74390 | -74.04555 | 10143 ft | 223 kts | 255° |
| 2026-05-04 15:13 | 40.74015 | -74.06521 | 11060 ft | 220 kts | 260° |
| 2026-05-04 15:13 | 40.73734 | -74.08519 | 11860 ft | 227 kts | 262° |
| 2026-05-04 15:13 | 40.73471 | -74.10584 | 12635 ft | 231 kts | 262° |
| 2026-05-04 15:13 | 40.73193 | -74.12695 | 13457 ft | 235 kts | 261° |
| 2026-05-04 15:14 | 40.72880 | -74.14828 | 14223 ft | 238 kts | 261° |
| 2026-05-04 15:14 | 40.72559 | -74.16981 | 14967 ft | 240 kts | 261° |
| 2026-05-04 15:14 | 40.72236 | -74.19146 | 15722 ft | 241 kts | 261° |
| 2026-05-04 15:14 | 40.71909 | -74.21324 | 16492 ft | 241 kts | 261° |
| 2026-05-04 15:15 | 40.71585 | -74.23483 | 17279 ft | 240 kts | 261° |
| 2026-05-04 15:15 | 40.71259 | -74.25642 | 18099 ft | 238 kts | 262° |
| 2026-05-04 15:15 | 40.70940 | -74.27766 | 18826 ft | 235 kts | 262° |
| 2026-05-04 15:16 | 40.70315 | -74.31889 | 20272 ft | 223 kts | 263° |
| 2026-05-04 15:16 | 40.70018 | -74.33850 | 20965 ft | 213 kts | 263° |
| 2026-05-04 15:16 | 40.69464 | -74.37456 | 22373 ft | 187 kts | 264° |
| 2026-05-04 15:17 | 40.69213 | -74.39093 | 22784 ft | 184 kts | 265° |
| 2026-05-04 15:17 | 40.68722 | -74.42399 | 23320 ft | 184 kts | 265° |
| 2026-05-04 15:17 | 40.68469 | -74.44091 | 23526 ft | 187 kts | 265° |
| 2026-05-04 15:18 | 40.68218 | -74.45756 | 23707 ft | 189 kts | 265° |
| 2026-05-04 15:18 | 40.67960 | -74.47456 | 23893 ft | 190 kts | 265° |
| 2026-05-04 15:18 | 40.67700 | -74.49161 | 24084 ft | 190 kts | 265° |
| 2026-05-04 15:19 | 40.67177 | -74.52589 | 24475 ft | 191 kts | 265° |
| 2026-05-04 15:19 | 40.66916 | -74.54300 | 24666 ft | 191 kts | 265° |
| 2026-05-04 15:19 | 40.66395 | -74.57710 | 25042 ft | 188 kts | 265° |
| 2026-05-04 15:20 | 40.66137 | -74.59399 | 25202 ft | 188 kts | 265° |
| 2026-05-04 15:20 | 40.65878 | -74.61099 | 25319 ft | 190 kts | 265° |
| 2026-05-04 15:20 | 40.65616 | -74.62814 | 25447 ft | 191 kts | 265° |
| 2026-05-04 15:20 | 40.65351 | -74.64529 | 25619 ft | 190 kts | 265° |
| 2026-05-04 15:21 | 40.65092 | -74.66213 | 25763 ft | 190 kts | 265° |
| 2026-05-04 15:21 | 40.64828 | -74.67934 | 25869 ft | 192 kts | 265° |
| 2026-05-04 15:21 | 40.64296 | -74.71396 | 26127 ft | 193 kts | 265° |
| 2026-05-04 15:22 | 40.64028 | -74.73124 | 26253 ft | 193 kts | 265° |
| 2026-05-04 15:22 | 40.63761 | -74.74856 | 26352 ft | 194 kts | 265° |
| 2026-05-04 15:22 | 40.63221 | -74.78344 | 26594 ft | 194 kts | 265° |
| 2026-05-04 15:23 | 40.62951 | -74.80087 | 26699 ft | 195 kts | 265° |
| 2026-05-04 15:23 | 40.62679 | -74.81839 | 26783 ft | 196 kts | 265° |
| 2026-05-04 15:23 | 40.62406 | -74.83598 | 26887 ft | 196 kts | 265° |
| 2026-05-04 15:23 | 40.62133 | -74.85356 | 27004 ft | 195 kts | 265° |
| 2026-05-04 15:24 | 40.61589 | -74.88852 | 27168 ft | 198 kts | 265° |
| 2026-05-04 15:24 | 40.61036 | -74.92391 | 27379 ft | 197 kts | 265° |
| 2026-05-04 15:25 | 40.60760 | -74.94162 | 27448 ft | 198 kts | 265° |
| 2026-05-04 15:25 | 40.60482 | -74.95945 | 27525 ft | 199 kts | 265° |
| 2026-05-04 15:25 | 40.60201 | -74.97724 | 27633 ft | 198 kts | 265° |
| 2026-05-04 15:26 | 40.59642 | -75.01278 | 27779 ft | 200 kts | 265° |
| 2026-05-04 15:26 | 40.59362 | -75.03072 | 27842 ft | 200 kts | 265° |
| 2026-05-04 15:26 | 40.58797 | -75.06656 | 28007 ft | 200 kts | 266° |
| 2026-05-04 15:27 | 40.58513 | -75.08463 | 28005 ft | 203 kts | 266° |
| 2026-05-04 15:27 | 40.57940 | -75.12091 | 28216 ft | 201 kts | 266° |
| 2026-05-04 15:28 | 40.57371 | -75.15687 | 28297 ft | 204 kts | 266° |
| 2026-05-04 15:28 | 40.57082 | -75.17518 | 28368 ft | 204 kts | 265° |
| 2026-05-04 15:28 | 40.56505 | -75.21139 | 28497 ft | 203 kts | 265° |
| 2026-05-04 15:29 | 40.56215 | -75.22973 | 28526 ft | 205 kts | 265° |
| 2026-05-04 15:30 | 40.55047 | -75.30281 | 28765 ft | 206 kts | 266° |
| 2026-05-04 15:30 | 40.54168 | -75.35774 | 28949 ft | 205 kts | 266° |
| 2026-05-04 15:31 | 40.53573 | -75.39442 | 29049 ft | 206 kts | 265° |
| 2026-05-04 15:31 | 40.53126 | -75.41253 | 29043 ft | 215 kts | 251° |
| 2026-05-04 15:32 | 40.50634 | -75.46323 | 29223 ft | 217 kts | 246° |
| 2026-05-04 15:32 | 40.49019 | -75.49745 | 29146 ft | 222 kts | 248° |
| 2026-05-04 15:33 | 40.47450 | -75.53171 | 29320 ft | 217 kts | 248° |
| 2026-05-04 15:34 | 40.45083 | -75.58302 | 29347 ft | 219 kts | 248° |
| 2026-05-04 15:34 | 40.44294 | -75.60007 | 29408 ft | 218 kts | 248° |
| 2026-05-04 15:34 | 40.42705 | -75.63440 | 29377 ft | 221 kts | 248° |
| 2026-05-04 15:35 | 40.41115 | -75.66868 | 29502 ft | 219 kts | 248° |
| 2026-05-04 15:35 | 40.40334 | -75.68564 | 29512 ft | 220 kts | 248° |
| 2026-05-04 15:35 | 40.39511 | -75.70346 | 29180 ft | 235 kts | 246° |
| 2026-05-04 15:36 | 40.37946 | -75.73845 | 29654 ft | 207 kts | 251° |
| 2026-05-04 15:36 | 40.37244 | -75.75589 | 29173 ft | 224 kts | 252° |
| 2026-05-04 15:36 | 40.36536 | -75.77467 | 28683 ft | 236 kts | 251° |
| 2026-05-04 15:37 | 40.35755 | -75.79498 | 27899 ft | 264 kts | 250° |
| 2026-05-04 15:37 | 40.34841 | -75.81841 | 26733 ft | 315 kts | 249° |
| 2026-05-04 15:37 | 40.33777 | -75.84558 | 26105 ft | 350 kts | 248° |
| 2026-05-04 15:37 | 40.32625 | -75.87406 | 26525 ft | 349 kts | 247° |
| 2026-05-04 15:38 | 40.31490 | -75.90079 | 27821 ft | 320 kts | 246° |
| 2026-05-04 15:38 | 40.30427 | -75.92447 | 29364 ft | 280 kts | 246° |
| 2026-05-04 15:38 | 40.29473 | -75.94453 | 30190 ft | 245 kts | 246° |
| 2026-05-04 15:38 | 40.28562 | -75.96307 | 29986 ft | 245 kts | 245° |
| 2026-05-04 15:39 | 40.27588 | -75.98305 | 29019 ft | 285 kts | 245° |
| 2026-05-04 15:39 | 40.26456 | -76.00696 | 28017 ft | 330 kts | 244° |
| 2026-05-04 15:39 | 40.23882 | -76.06202 | 27697 ft | 364 kts | 244° |
| 2026-05-04 15:40 | 40.22592 | -76.08989 | 28545 ft | 346 kts | 244° |
| 2026-05-04 15:40 | 40.21416 | -76.11493 | 29682 ft | 299 kts | 245° |
| 2026-05-04 15:40 | 40.20375 | -76.13646 | 30343 ft | 264 kts | 245° |
| 2026-05-04 15:40 | 40.19410 | -76.15613 | 30334 ft | 255 kts | 245° |
| 2026-05-04 15:41 | 40.18425 | -76.17671 | 29858 ft | 281 kts | 245° |
| 2026-05-04 15:41 | 40.17356 | -76.19980 | 29250 ft | 311 kts | 245° |
| 2026-05-04 15:41 | 40.16217 | -76.22511 | 28866 ft | 333 kts | 246° |
| 2026-05-04 15:41 | 40.15030 | -76.25188 | 28831 ft | 345 kts | 246° |
| 2026-05-04 15:42 | 40.13843 | -76.27871 | 29187 ft | 345 kts | 246° |
| 2026-05-04 15:42 | 40.12652 | -76.30557 | 29863 ft | 335 kts | 246° |
| 2026-05-04 15:42 | 40.11510 | -76.33116 | 30585 ft | 314 kts | 246° |
| 2026-05-04 15:42 | 40.10436 | -76.35502 | 31175 ft | 295 kts | 246° |
| 2026-05-04 15:43 | 40.09413 | -76.37774 | 31522 ft | 288 kts | 246° |
| 2026-05-04 15:43 | 40.08417 | -76.40010 | 31650 ft | 279 kts | 247° |
| 2026-05-04 15:43 | 40.07459 | -76.42175 | 31471 ft | 272 kts | 247° |
| 2026-05-04 15:43 | 40.06833 | -76.43596 | 31187 ft | 274 kts | 247° |
| 2026-05-04 15:44 | 40.05874 | -76.45785 | 30572 ft | 283 kts | 247° |
| 2026-05-04 15:44 | 40.04872 | -76.48060 | 29839 ft | 296 kts | 247° |
| 2026-05-04 15:44 | 40.03824 | -76.50432 | 29027 ft | 307 kts | 246° |
| 2026-05-04 15:44 | 40.02711 | -76.52953 | 28413 ft | 334 kts | 246° |
| 2026-05-04 15:45 | 40.01522 | -76.55664 | 28164 ft | 352 kts | 246° |
| 2026-05-04 15:45 | 40.00291 | -76.58456 | 28344 ft | 357 kts | 245° |
| 2026-05-04 15:45 | 39.99055 | -76.61239 | 28913 ft | 350 kts | 245° |
| 2026-05-04 15:45 | 39.97843 | -76.63938 | 29767 ft | 336 kts | 245° |
| 2026-05-04 15:46 | 39.96689 | -76.66483 | 30603 ft | 314 kts | 246° |
| 2026-05-04 15:46 | 39.95627 | -76.68809 | 31263 ft | 292 kts | 246° |
| 2026-05-04 15:46 | 39.94618 | -76.71028 | 31664 ft | 279 kts | 246° |
| 2026-05-04 15:46 | 39.93648 | -76.73185 | 31751 ft | 275 kts | 247° |
| 2026-05-04 15:47 | 39.92686 | -76.75361 | 31570 ft | 280 kts | 247° |
| 2026-05-04 15:47 | 39.91711 | -76.77608 | 31257 ft | 291 kts | 248° |
| 2026-05-04 15:47 | 39.90713 | -76.79960 | 30900 ft | 303 kts | 248° |
| 2026-05-04 15:47 | 39.89686 | -76.82417 | 30586 ft | 314 kts | 248° |
| 2026-05-04 15:48 | 39.88625 | -76.84953 | 30370 ft | 322 kts | 248° |
| 2026-05-04 15:48 | 39.85417 | -76.92679 | 30440 ft | 319 kts | 248° |
| 2026-05-04 15:49 | 39.84376 | -76.95203 | 30602 ft | 313 kts | 248° |
| 2026-05-04 15:49 | 39.83361 | -76.97679 | 30773 ft | 307 kts | 249° |
| 2026-05-04 15:49 | 39.82373 | -77.00117 | 30921 ft | 302 kts | 249° |
| 2026-05-04 15:49 | 39.81425 | -77.02530 | 31027 ft | 298 kts | 250° |
| 2026-05-04 15:50 | 39.80527 | -77.04906 | 31071 ft | 296 kts | 251° |
| 2026-05-04 15:50 | 39.79645 | -77.07323 | 31044 ft | 296 kts | 251° |
| 2026-05-04 15:50 | 39.78783 | -77.09750 | 30989 ft | 297 kts | 252° |
| 2026-05-04 15:50 | 39.77926 | -77.12205 | 30916 ft | 299 kts | 252° |
| 2026-05-04 15:51 | 39.76238 | -77.17195 | 30792 ft | 303 kts | 253° |
| 2026-05-04 15:51 | 39.74609 | -77.22274 | 30699 ft | 305 kts | 254° |
| 2026-05-04 15:52 | 39.73043 | -77.27400 | 30695 ft | 304 kts | 255° |
| 2026-05-04 15:52 | 39.71550 | -77.32526 | 30774 ft | 303 kts | 256° |
| 2026-05-04 15:53 | 39.70124 | -77.37671 | 30941 ft | 305 kts | 256° |
| 2026-05-04 15:53 | 39.69408 | -77.40304 | 31058 ft | 305 kts | 256° |
| 2026-05-04 15:53 | 39.68724 | -77.42866 | 31179 ft | 304 kts | 257° |
| 2026-05-04 15:54 | 39.68045 | -77.45452 | 31327 ft | 303 kts | 257° |
| 2026-05-04 15:54 | 39.67374 | -77.48040 | 31467 ft | 301 kts | 257° |